Wetterdaten: Woche 07.05.07 - 13.05.07 (KW19)
Datum Zeit Temperatur Luftfeuchte Luftdruck Niederschlag Wind Richtung Sonnenschein Solar Taupunkt Windchill Windben
07.05.2007 00:00 10.0 C 94 % 1018.7 hPa 0.0 l/m 0.2 km/h (0 Bft) SO 0.00 h 0 W/m 9.1 C 10.0 C 0.7 km/h (0 Bft)
07.05.2007 01:00 9.4 C 96 % 1018.8 hPa 0.0 l/m 1.7 km/h (1 Bft) O-SO 0.00 h 0 W/m 8.9 C 9.4 C 2.7 km/h (1 Bft)
07.05.2007 02:00 9.8 C 91 % 1018.8 hPa 0.0 l/m 0.7 km/h (0 Bft) SO 0.00 h 0 W/m 8.5 C 9.8 C 1.6 km/h (1 Bft)
07.05.2007 03:00 9.9 C 90 % 1018.7 hPa 0.0 l/m 1.5 km/h (1 Bft) SO 0.00 h 0 W/m 8.4 C 9.9 C 3.1 km/h (1 Bft)
07.05.2007 04:00 9.8 C 90 % 1018.7 hPa 0.0 l/m 1.7 km/h (1 Bft) S-SO 0.00 h 0 W/m 8.2 C 9.7 C 3.9 km/h (1 Bft)
07.05.2007 05:00 9.3 C 91 % 1018.9 hPa 0.0 l/m 3.2 km/h (1 Bft) S-SO 0.00 h 0 W/m 7.9 C 9.1 C 5.7 km/h (1 Bft)
07.05.2007 06:00 9.4 C 91 % 1019.2 hPa 0.0 l/m 1.2 km/h (1 Bft) O-SO 0.00 h 15 W/m 8.0 C 9.4 C 3.0 km/h (1 Bft)
07.05.2007 07:00 10.0 C 89 % 1019.6 hPa 0.0 l/m 2.7 km/h (1 Bft) S-SO 0.00 h 60 W/m 8.3 C 10.0 C 5.5 km/h (1 Bft)
07.05.2007 08:00 11.2 C 86 % 1019.8 hPa 0.0 l/m 1.8 km/h (1 Bft) S-SO 0.00 h 96 W/m 8.9 C 11.2 C 4.0 km/h (1 Bft)
07.05.2007 09:00 11.9 C 83 % 1020.2 hPa 0.0 l/m 1.2 km/h (1 Bft) S 0.00 h 83 W/m 9.1 C 11.9 C 3.4 km/h (1 Bft)
07.05.2007 10:00 13.5 C 77 % 1020.2 hPa 0.0 l/m 3.7 km/h (1 Bft) W-SW 0.00 h 224 W/m 9.5 C 13.5 C 7.3 km/h (2 Bft)
07.05.2007 11:00 15.0 C 71 % 1020.2 hPa 0.0 l/m 10.1 km/h (2 Bft) W 0.00 h 305 W/m 9.7 C 15.0 C 16.5 km/h (3 Bft)
07.05.2007 12:00 14.7 C 72 % 1020.2 hPa 0.2 l/m 10.7 km/h (2 Bft) W 0.00 h 305 W/m 9.6 C 14.7 C 17.2 km/h (3 Bft)
07.05.2007 13:00 15.6 C 65 % 1019.8 hPa 0.0 l/m 12.7 km/h (3 Bft) W 0.05 h 324 W/m 9.2 C 15.6 C 19.6 km/h (3 Bft)
07.05.2007 14:00 15.4 C 71 % 1019.7 hPa 0.0 l/m 8.8 km/h (2 Bft) W 0.00 h 253 W/m 10.0 C 15.4 C 13.9 km/h (3 Bft)
07.05.2007 15:00 16.4 C 69 % 1019.3 hPa 0.2 l/m 8.2 km/h (2 Bft) W 0.00 h 299 W/m 10.7 C 16.4 C 13.0 km/h (3 Bft)
07.05.2007 16:00 17.2 C 64 % 1018.6 hPa 0.0 l/m 11.8 km/h (2 Bft) W 0.28 h 349 W/m 10.2 C 17.2 C 17.7 km/h (3 Bft)
07.05.2007 17:00 16.8 C 65 % 1018.2 hPa 0.0 l/m 10.5 km/h (2 Bft) W 0.33 h 237 W/m 10.1 C 16.8 C 16.6 km/h (3 Bft)
07.05.2007 18:00 16.5 C 66 % 1018.0 hPa 0.0 l/m 15.7 km/h (3 Bft) W 0.40 h 211 W/m 10.2 C 16.5 C 22.7 km/h (4 Bft)
07.05.2007 19:00 15.9 C 68 % 1017.7 hPa 0.0 l/m 12.8 km/h (3 Bft) W 0.05 h 85 W/m 9.9 C 15.9 C 19.2 km/h (3 Bft)
07.05.2007 20:00 15.3 C 68 % 1017.8 hPa 0.0 l/m 18.5 km/h (3 Bft) W-NW 0.00 h 17 W/m 9.3 C 15.3 C 26.6 km/h (4 Bft)
07.05.2007 21:00 15.3 C 66 % 1018.0 hPa 0.0 l/m 17.9 km/h (3 Bft) W 0.00 h 0 W/m 9.1 C 15.3 C 26.8 km/h (4 Bft)
07.05.2007 22:00 15.6 C 65 % 1018.2 hPa 0.0 l/m 18.3 km/h (3 Bft) W 0.00 h 0 W/m 9.1 C 15.6 C 27.0 km/h (4 Bft)
07.05.2007 23:00 15.3 C 67 % 1017.9 hPa 0.0 l/m 6.8 km/h (2 Bft) W-SW 0.00 h 0 W/m 9.2 C 15.3 C 12.9 km/h (3 Bft)
08.05.2007 00:00 14.9 C 69 % 1017.6 hPa 0.0 l/m 3.7 km/h (1 Bft) SW 0.00 h 0 W/m 9.3 C 14.9 C 7.9 km/h (2 Bft)
08.05.2007 01:00 14.9 C 70 % 1017.3 hPa 0.0 l/m 7.0 km/h (2 Bft) W-SW 0.00 h 0 W/m 9.5 C 14.9 C 12.1 km/h (2 Bft)
08.05.2007 02:00 15.0 C 69 % 1017.0 hPa 0.0 l/m 9.2 km/h (2 Bft) W 0.00 h 0 W/m 9.3 C 15.0 C 14.3 km/h (3 Bft)
08.05.2007 03:00 14.6 C 74 % 1016.6 hPa 0.2 l/m 6.8 km/h (2 Bft) W-SW 0.00 h 0 W/m 9.8 C 14.6 C 11.5 km/h (2 Bft)
08.05.2007 04:00 12.5 C 92 % 1017.0 hPa 2.8 l/m 5.5 km/h (1 Bft) W 0.00 h 0 W/m 11.2 C 12.5 C 8.2 km/h (2 Bft)
08.05.2007 05:00 12.1 C 97 % 1017.0 hPa 1.6 l/m 3.4 km/h (1 Bft) W-SW 0.00 h 0 W/m 11.6 C 12.1 C 6.0 km/h (2 Bft)
08.05.2007 06:00 12.0 C 97 % 1017.1 hPa 0.0 l/m 5.1 km/h (1 Bft) W-SW 0.00 h 7 W/m 11.5 C 12.0 C 9.8 km/h (2 Bft)
08.05.2007 07:00 12.4 C 95 % 1017.5 hPa 0.2 l/m 12.5 km/h (3 Bft) W-SW 0.00 h 44 W/m 11.6 C 12.4 C 20.3 km/h (4 Bft)
08.05.2007 08:00 13.8 C 81 % 1017.9 hPa 0.0 l/m 23.8 km/h (4 Bft) W 0.00 h 122 W/m 10.6 C 13.8 C 35.8 km/h (5 Bft)
08.05.2007 09:00 14.9 C 73 % 1017.9 hPa 0.0 l/m 21.6 km/h (4 Bft) W 0.08 h 208 W/m 10.0 C 14.9 C 31.4 km/h (5 Bft)
08.05.2007 10:00 15.7 C 70 % 1018.3 hPa 0.0 l/m 20.9 km/h (4 Bft) W 0.52 h 475 W/m 10.2 C 15.7 C 31.7 km/h (5 Bft)
08.05.2007 11:00 16.6 C 64 % 1018.1 hPa 0.0 l/m 18.2 km/h (3 Bft) W 0.12 h 286 W/m 9.7 C 16.6 C 27.3 km/h (4 Bft)
08.05.2007 12:00 17.3 C 62 % 1017.5 hPa 0.0 l/m 13.4 km/h (3 Bft) W 0.10 h 341 W/m 9.9 C 17.3 C 20.7 km/h (4 Bft)
08.05.2007 13:00 15.7 C 79 % 1017.5 hPa 0.6 l/m 11.3 km/h (2 Bft) W 0.08 h 281 W/m 12.0 C 15.7 C 18.4 km/h (3 Bft)
08.05.2007 14:00 17.1 C 78 % 1016.6 hPa 0.0 l/m 9.6 km/h (2 Bft) W 0.42 h 531 W/m 13.2 C 17.1 C 15.8 km/h (3 Bft)
08.05.2007 15:00 17.5 C 70 % 1015.6 hPa 0.0 l/m 13.2 km/h (3 Bft) W 0.00 h 267 W/m 11.9 C 17.5 C 21.8 km/h (4 Bft)
08.05.2007 16:00 17.5 C 71 % 1015.0 hPa 0.0 l/m 10.1 km/h (2 Bft) W-SW 0.00 h 182 W/m 12.1 C 17.5 C 17.5 km/h (3 Bft)
08.05.2007 17:00 17.5 C 73 % 1015.2 hPa 0.2 l/m 13.4 km/h (3 Bft) W 0.20 h 218 W/m 12.6 C 17.5 C 21.9 km/h (4 Bft)
08.05.2007 18:00 15.0 C 90 % 1016.1 hPa 1.8 l/m 8.5 km/h (2 Bft) W 0.00 h 54 W/m 13.4 C 15.0 C 13.8 km/h (3 Bft)
08.05.2007 19:00 14.3 C 94 % 1016.4 hPa 2.6 l/m 16.1 km/h (3 Bft) W 0.00 h 33 W/m 13.3 C 14.3 C 24.4 km/h (4 Bft)
08.05.2007 20:00 14.4 C 88 % 1017.2 hPa 0.0 l/m 12.9 km/h (3 Bft) W 0.00 h 19 W/m 12.4 C 14.4 C 19.8 km/h (3 Bft)
08.05.2007 21:00 14.9 C 83 % 1018.2 hPa 0.0 l/m 11.2 km/h (2 Bft) W 0.00 h 0 W/m 12.1 C 14.9 C 17.6 km/h (3 Bft)
08.05.2007 22:00 15.4 C 78 % 1018.2 hPa 0.0 l/m 15.8 km/h (3 Bft) W 0.00 h 0 W/m 11.6 C 15.4 C 24.1 km/h (4 Bft)
08.05.2007 23:00 14.1 C 89 % 1018.7 hPa 1.8 l/m 17.5 km/h (3 Bft) W 0.00 h 0 W/m 12.3 C 14.1 C 26.6 km/h (4 Bft)
09.05.2007 00:00 13.3 C 94 % 1018.2 hPa 2.2 l/m 9.6 km/h (2 Bft) W 0.00 h 0 W/m 12.4 C 13.3 C 15.1 km/h (3 Bft)
09.05.2007 01:00 12.9 C 96 % 1018.4 hPa 2.4 l/m 10.7 km/h (2 Bft) W 0.00 h 0 W/m 12.2 C 12.9 C 16.6 km/h (3 Bft)
09.05.2007 02:00 12.6 C 97 % 1017.9 hPa 2.8 l/m 6.4 km/h (2 Bft) W-SW 0.00 h 0 W/m 12.1 C 12.6 C 11.0 km/h (2 Bft)
09.05.2007 03:00 12.5 C 98 % 1017.4 hPa 1.6 l/m 3.3 km/h (1 Bft) SW 0.00 h 0 W/m 12.2 C 12.5 C 6.7 km/h (2 Bft)
09.05.2007 04:00 13.1 C 96 % 1017.3 hPa 0.4 l/m 11.3 km/h (2 Bft) W 0.00 h 0 W/m 12.4 C 13.1 C 18.3 km/h (3 Bft)
09.05.2007 05:00 13.4 C 92 % 1017.4 hPa 0.0 l/m 11.5 km/h (2 Bft) W 0.00 h 0 W/m 12.1 C 13.4 C 19.2 km/h (3 Bft)
09.05.2007 06:00 13.9 C 85 % 1017.8 hPa 0.0 l/m 14.7 km/h (3 Bft) W 0.00 h 14 W/m 11.5 C 13.9 C 23.5 km/h (4 Bft)
09.05.2007 07:00 14.2 C 82 % 1018.4 hPa 0.2 l/m 13.3 km/h (3 Bft) W 0.00 h 42 W/m 11.2 C 14.2 C 21.6 km/h (4 Bft)
09.05.2007 08:00 14.4 C 81 % 1018.9 hPa 0.0 l/m 14.0 km/h (3 Bft) W 0.00 h 104 W/m 11.2 C 14.4 C 22.1 km/h (4 Bft)
09.05.2007 09:00 15.1 C 77 % 1019.0 hPa 0.0 l/m 16.8 km/h (3 Bft) W 0.00 h 156 W/m 11.0 C 15.1 C 25.8 km/h (4 Bft)
09.05.2007 10:00 15.6 C 72 % 1019.4 hPa 0.0 l/m 20.2 km/h (4 Bft) W 0.00 h 269 W/m 10.6 C 15.6 C 29.8 km/h (5 Bft)
09.05.2007 11:00 16.4 C 68 % 1019.8 hPa 0.0 l/m 21.5 km/h (4 Bft) W 0.23 h 443 W/m 10.4 C 16.4 C 31.8 km/h (5 Bft)
09.05.2007 12:00 16.4 C 69 % 1019.9 hPa 0.0 l/m 16.2 km/h (3 Bft) W 0.13 h 316 W/m 10.7 C 16.4 C 23.8 km/h (4 Bft)
09.05.2007 13:00 17.6 C 62 % 1019.8 hPa 0.0 l/m 23.5 km/h (4 Bft) W 0.50 h 602 W/m 10.2 C 17.6 C 34.6 km/h (5 Bft)
09.05.2007 14:00 17.1 C 66 % 1020.1 hPa 0.0 l/m 16.0 km/h (3 Bft) W 0.00 h 307 W/m 10.8 C 17.1 C 23.0 km/h (4 Bft)
09.05.2007 15:00 18.2 C 61 % 1020.0 hPa 0.0 l/m 15.2 km/h (3 Bft) W 0.93 h 635 W/m 10.7 C 18.2 C 23.3 km/h (4 Bft)
09.05.2007 16:00 18.6 C 59 % 1019.6 hPa 0.0 l/m 14.9 km/h (3 Bft) W 0.70 h 477 W/m 10.5 C 18.6 C 22.9 km/h (4 Bft)
09.05.2007 17:00 18.6 C 56 % 1019.5 hPa 0.0 l/m 16.9 km/h (3 Bft) W 0.78 h 388 W/m 9.8 C 18.6 C 25.3 km/h (4 Bft)
09.05.2007 18:00 17.8 C 57 % 1019.7 hPa 0.0 l/m 20.7 km/h (4 Bft) W 0.78 h 263 W/m 9.3 C 17.8 C 29.4 km/h (5 Bft)
09.05.2007 19:00 16.6 C 63 % 1020.2 hPa 0.0 l/m 15.5 km/h (3 Bft) W 0.05 h 92 W/m 9.4 C 16.6 C 22.8 km/h (4 Bft)
09.05.2007 20:00 15.5 C 66 % 1020.5 hPa 0.0 l/m 13.8 km/h (3 Bft) W-NW 0.00 h 21 W/m 9.1 C 15.5 C 21.0 km/h (4 Bft)
09.05.2007 21:00 14.9 C 68 % 1020.8 hPa 0.0 l/m 12.5 km/h (3 Bft) W-NW 0.00 h 0 W/m 8.9 C 14.9 C 18.7 km/h (3 Bft)
09.05.2007 22:00 14.2 C 70 % 1020.9 hPa 0.0 l/m 8.8 km/h (2 Bft) W 0.00 h 0 W/m 8.8 C 14.2 C 13.4 km/h (3 Bft)
09.05.2007 23:00 13.0 C 75 % 1020.8 hPa 0.0 l/m 2.7 km/h (1 Bft) W-NW 0.00 h 0 W/m 8.7 C 13.0 C 5.3 km/h (1 Bft)
10.05.2007 00:00 12.5 C 76 % 1020.9 hPa 0.0 l/m 1.5 km/h (1 Bft) NW 0.00 h 0 W/m 8.3 C 12.5 C 3.2 km/h (1 Bft)
10.05.2007 01:00 11.8 C 78 % 1020.7 hPa 0.0 l/m 1.6 km/h (1 Bft) O 0.00 h 0 W/m 7.9 C 11.8 C 2.9 km/h (1 Bft)
10.05.2007 02:00 11.4 C 76 % 1020.6 hPa 0.0 l/m 2.5 km/h (1 Bft) S-SO 0.00 h 0 W/m 7.3 C 11.4 C 4.6 km/h (1 Bft)
10.05.2007 03:00 11.7 C 75 % 1020.4 hPa 0.0 l/m 5.0 km/h (1 Bft) S-SO 0.00 h 0 W/m 7.5 C 11.7 C 8.0 km/h (2 Bft)
10.05.2007 04:00 11.7 C 77 % 1020.0 hPa 0.0 l/m 6.0 km/h (2 Bft) S-SO 0.00 h 0 W/m 7.9 C 11.7 C 10.0 km/h (2 Bft)
10.05.2007 05:00 10.9 C 81 % 1019.7 hPa 0.0 l/m 0.7 km/h (0 Bft) S-SO 0.00 h 0 W/m 7.7 C 10.9 C 2.3 km/h (1 Bft)
10.05.2007 06:00 10.7 C 81 % 1019.5 hPa 0.0 l/m 0.7 km/h (0 Bft) O-SO 0.00 h 18 W/m 7.6 C 10.7 C 2.3 km/h (1 Bft)
10.05.2007 07:00 11.4 C 81 % 1019.7 hPa 0.0 l/m 0.5 km/h (0 Bft) SW 0.43 h 123 W/m 8.2 C 11.4 C 1.5 km/h (1 Bft)
10.05.2007 08:00 13.4 C 76 % 1019.7 hPa 0.0 l/m 0.6 km/h (0 Bft) O 0.95 h 320 W/m 9.3 C 13.4 C 1.9 km/h (1 Bft)
10.05.2007 09:00 15.9 C 68 % 1019.4 hPa 0.0 l/m 2.2 km/h (1 Bft) W 0.97 h 490 W/m 10.0 C 15.9 C 4.2 km/h (1 Bft)
10.05.2007 10:00 18.0 C 60 % 1018.8 hPa 0.0 l/m 2.8 km/h (1 Bft) W-NW 1.00 h 563 W/m 10.2 C 18.0 C 5.2 km/h (1 Bft)
10.05.2007 11:00 19.7 C 57 % 1018.1 hPa 0.0 l/m 3.3 km/h (1 Bft) SO 0.97 h 611 W/m 10.8 C 19.7 C 6.0 km/h (2 Bft)
10.05.2007 12:00 21.3 C 51 % 1017.3 hPa 0.0 l/m 3.7 km/h (1 Bft) W 1.00 h 700 W/m 10.8 C 21.3 C 6.9 km/h (2 Bft)
10.05.2007 13:00 22.5 C 42 % 1016.6 hPa 0.0 l/m 5.3 km/h (1 Bft) W-SW 1.00 h 742 W/m 9.0 C 22.5 C 8.7 km/h (2 Bft)
10.05.2007 14:00 22.8 C 42 % 1015.9 hPa 0.0 l/m 5.7 km/h (1 Bft) W-NW 1.00 h 645 W/m 9.1 C 22.8 C 8.7 km/h (2 Bft)
10.05.2007 15:00 23.2 C 41 % 1015.0 hPa 0.0 l/m 3.7 km/h (1 Bft) W-NW 0.83 h 543 W/m 9.3 C 23.2 C 6.0 km/h (2 Bft)
10.05.2007 16:00 23.6 C 44 % 1014.3 hPa 0.0 l/m 4.3 km/h (1 Bft) NW 0.92 h 491 W/m 10.6 C 23.6 C 6.6 km/h (2 Bft)
10.05.2007 17:00 23.6 C 45 % 1013.5 hPa 0.0 l/m 4.9 km/h (1 Bft) N-NW 0.57 h 336 W/m 10.8 C 23.6 C 7.5 km/h (2 Bft)
10.05.2007 18:00 23.5 C 42 % 1013.0 hPa 0.0 l/m 4.4 km/h (1 Bft) W 0.70 h 278 W/m 9.6 C 23.5 C 7.0 km/h (2 Bft)
10.05.2007 19:00 23.3 C 39 % 1012.0 hPa 0.0 l/m 2.6 km/h (1 Bft) W 0.92 h 156 W/m 8.5 C 23.3 C 4.6 km/h (1 Bft)
10.05.2007 20:00 19.5 C 54 % 1011.6 hPa 0.0 l/m 3.2 km/h (1 Bft) S-SO 0.00 h 21 W/m 10.0 C 19.5 C 4.7 km/h (1 Bft)
10.05.2007 21:00 17.3 C 63 % 1011.5 hPa 0.0 l/m 2.6 km/h (1 Bft) SO 0.00 h 0 W/m 10.2 C 17.3 C 3.8 km/h (1 Bft)
10.05.2007 22:00 15.0 C 75 % 1011.1 hPa 0.0 l/m 0.6 km/h (0 Bft) O-SO 0.00 h 0 W/m 10.6 C 15.0 C 1.1 km/h (1 Bft)
10.05.2007 23:00 13.8 C 80 % 1010.9 hPa 0.0 l/m 1.0 km/h (0 Bft) SO 0.00 h 0 W/m 10.3 C 13.8 C 1.8 km/h (1 Bft)
11.05.2007 00:00 12.9 C 82 % 1010.6 hPa 0.0 l/m 0.4 km/h (0 Bft) SO 0.00 h 0 W/m 10.0 C 12.9 C 1.1 km/h (1 Bft)
11.05.2007 01:00 12.7 C 82 % 1010.0 hPa 0.0 l/m 1.0 km/h (0 Bft) SO 0.00 h 0 W/m 9.7 C 12.7 C 2.0 km/h (1 Bft)
11.05.2007 02:00 13.0 C 78 % 1009.5 hPa 0.0 l/m 1.9 km/h (1 Bft) N-NW 0.00 h 0 W/m 9.2 C 13.0 C 3.1 km/h (1 Bft)
11.05.2007 03:00 12.5 C 82 % 1009.0 hPa 0.0 l/m 1.0 km/h (0 Bft) NO 0.00 h 0 W/m 9.5 C 12.5 C 2.6 km/h (1 Bft)
11.05.2007 04:00 11.6 C 87 % 1008.3 hPa 0.0 l/m 1.6 km/h (1 Bft) N-NO 0.00 h 0 W/m 9.5 C 11.6 C 3.3 km/h (1 Bft)
11.05.2007 05:00 11.8 C 84 % 1008.3 hPa 0.0 l/m 4.1 km/h (1 Bft) N-NW 0.00 h 0 W/m 9.2 C 11.8 C 7.0 km/h (2 Bft)
11.05.2007 06:00 14.4 C 72 % 1008.5 hPa 0.0 l/m 3.5 km/h (1 Bft) W-NW 0.00 h 27 W/m 9.4 C 14.4 C 6.2 km/h (2 Bft)
11.05.2007 07:00 16.6 C 62 % 1009.3 hPa 0.0 l/m 9.0 km/h (2 Bft) W 0.00 h 54 W/m 9.3 C 16.6 C 14.4 km/h (3 Bft)
11.05.2007 08:00 17.1 C 53 % 1010.6 hPa 0.0 l/m 17.2 km/h (3 Bft) W 0.00 h 108 W/m 7.4 C 17.1 C 25.1 km/h (4 Bft)
11.05.2007 09:00 16.9 C 57 % 1011.5 hPa 0.0 l/m 19.0 km/h (3 Bft) W 0.20 h 255 W/m 8.3 C 16.9 C 28.2 km/h (4 Bft)
11.05.2007 10:00 18.0 C 57 % 1011.6 hPa 0.0 l/m 17.6 km/h (3 Bft) W 0.68 h 488 W/m 9.3 C 18.0 C 26.9 km/h (4 Bft)
11.05.2007 11:00 19.2 C 50 % 1011.8 hPa 0.0 l/m 24.7 km/h (4 Bft) W 0.58 h 537 W/m 8.6 C 19.2 C 35.8 km/h (5 Bft)
11.05.2007 12:00 18.2 C 54 % 1012.2 hPa 0.0 l/m 19.4 km/h (3 Bft) W 0.07 h 353 W/m 8.7 C 18.2 C 28.8 km/h (4 Bft)
11.05.2007 13:00 18.6 C 56 % 1012.0 hPa 0.0 l/m 22.0 km/h (4 Bft) W 0.30 h 527 W/m 9.6 C 18.6 C 32.1 km/h (5 Bft)
11.05.2007 14:00 17.9 C 61 % 1012.5 hPa 0.0 l/m 24.1 km/h (4 Bft) W 0.48 h 558 W/m 10.2 C 17.9 C 34.7 km/h (5 Bft)
11.05.2007 15:00 18.2 C 60 % 1012.4 hPa 0.0 l/m 21.8 km/h (4 Bft) W 0.68 h 543 W/m 10.3 C 18.2 C 31.0 km/h (5 Bft)
11.05.2007 16:00 18.2 C 58 % 1012.0 hPa 0.0 l/m 21.5 km/h (4 Bft) W-NW 0.40 h 376 W/m 9.7 C 18.2 C 31.0 km/h (5 Bft)
11.05.2007 17:00 18.5 C 57 % 1011.6 hPa 0.0 l/m 15.9 km/h (3 Bft) W 0.53 h 324 W/m 9.9 C 18.5 C 24.4 km/h (4 Bft)
11.05.2007 18:00 18.1 C 57 % 1011.5 hPa 0.0 l/m 15.7 km/h (3 Bft) W 0.03 h 166 W/m 9.4 C 18.1 C 23.9 km/h (4 Bft)
11.05.2007 19:00 16.7 C 62 % 1011.7 hPa 0.0 l/m 13.7 km/h (3 Bft) W 0.00 h 57 W/m 9.3 C 16.7 C 20.2 km/h (4 Bft)
11.05.2007 20:00 16.0 C 65 % 1012.1 hPa 0.0 l/m 12.5 km/h (3 Bft) W 0.00 h 18 W/m 9.5 C 16.0 C 19.0 km/h (3 Bft)
11.05.2007 21:00 15.4 C 69 % 1012.5 hPa 0.0 l/m 6.2 km/h (2 Bft) W 0.00 h 0 W/m 9.8 C 15.4 C 9.4 km/h (2 Bft)
11.05.2007 22:00 14.1 C 77 % 1012.7 hPa 0.0 l/m 0.9 km/h (0 Bft) S 0.00 h 0 W/m 10.0 C 14.1 C 1.8 km/h (1 Bft)
11.05.2007 23:00 13.3 C 80 % 1012.8 hPa 0.0 l/m 0.8 km/h (0 Bft) S-SO 0.00 h 0 W/m 9.8 C 13.3 C 2.0 km/h (1 Bft)
12.05.2007 00:00 12.9 C 82 % 1012.6 hPa 0.0 l/m 1.2 km/h (1 Bft) S-SO 0.00 h 0 W/m 10.0 C 12.9 C 2.4 km/h (1 Bft)
12.05.2007 01:00 13.0 C 84 % 1012.3 hPa 0.0 l/m 0.7 km/h (0 Bft) S-SO 0.00 h 0 W/m 10.3 C 13.0 C 2.4 km/h (1 Bft)
12.05.2007 02:00 12.9 C 89 % 1011.9 hPa 0.4 l/m 2.6 km/h (1 Bft) S-SO 0.00 h 0 W/m 11.1 C 12.9 C 4.3 km/h (1 Bft)
12.05.2007 03:00 12.5 C 91 % 1011.7 hPa 0.0 l/m 2.5 km/h (1 Bft) SO 0.00 h 0 W/m 11.1 C 12.5 C 4.2 km/h (1 Bft)
12.05.2007 04:00 12.5 C 91 % 1011.7 hPa 0.2 l/m 2.2 km/h (1 Bft) S-SO 0.00 h 0 W/m 11.0 C 12.5 C 4.5 km/h (1 Bft)
12.05.2007 05:00 12.4 C 93 % 1012.0 hPa 0.6 l/m 1.4 km/h (1 Bft) S 0.00 h 0 W/m 11.3 C 12.4 C 2.8 km/h (1 Bft)
12.05.2007 06:00 12.5 C 94 % 1012.4 hPa 1.0 l/m 2.5 km/h (1 Bft) S-SO 0.00 h 27 W/m 11.5 C 12.5 C 4.5 km/h (1 Bft)
12.05.2007 07:00 13.2 C 91 % 1012.7 hPa 0.0 l/m 4.0 km/h (1 Bft) S-SO 0.00 h 83 W/m 11.8 C 13.2 C 6.5 km/h (2 Bft)
12.05.2007 08:00 14.3 C 88 % 1013.2 hPa 0.0 l/m 1.8 km/h (1 Bft) S 0.00 h 139 W/m 12.3 C 14.3 C 3.9 km/h (1 Bft)
12.05.2007 09:00 15.5 C 78 % 1013.4 hPa 0.0 l/m 8.8 km/h (2 Bft) W 0.20 h 278 W/m 11.6 C 15.5 C 14.6 km/h (3 Bft)
12.05.2007 10:00 16.9 C 62 % 1013.6 hPa 0.0 l/m 16.8 km/h (3 Bft) W 0.20 h 357 W/m 9.6 C 16.9 C 25.6 km/h (4 Bft)
12.05.2007 11:00 18.4 C 55 % 1013.6 hPa 0.0 l/m 18.0 km/h (3 Bft) W 0.70 h 570 W/m 9.2 C 18.4 C 27.7 km/h (4 Bft)
12.05.2007 12:00 19.2 C 53 % 1013.6 hPa 0.0 l/m 18.9 km/h (3 Bft) W-NW 0.77 h 681 W/m 9.3 C 19.2 C 27.4 km/h (4 Bft)
12.05.2007 13:00 20.4 C 48 % 1013.5 hPa 0.0 l/m 22.6 km/h (4 Bft) W 1.00 h 839 W/m 8.9 C 20.4 C 32.8 km/h (5 Bft)
12.05.2007 14:00 21.1 C 44 % 1013.6 hPa 0.0 l/m 21.8 km/h (4 Bft) W 1.00 h 832 W/m 8.3 C 21.1 C 30.7 km/h (5 Bft)
12.05.2007 15:00 21.5 C 41 % 1013.6 hPa 0.0 l/m 20.4 km/h (4 Bft) W 1.00 h 743 W/m 7.8 C 21.5 C 28.9 km/h (5 Bft)
12.05.2007 16:00 21.6 C 41 % 1013.4 hPa 0.0 l/m 19.5 km/h (3 Bft) W 0.92 h 584 W/m 7.6 C 21.6 C 28.6 km/h (4 Bft)
12.05.2007 17:00 21.6 C 40 % 1013.2 hPa 0.0 l/m 19.0 km/h (3 Bft) W 1.00 h 461 W/m 7.5 C 21.6 C 27.1 km/h (4 Bft)
12.05.2007 18:00 21.5 C 41 % 1013.2 hPa 0.0 l/m 13.2 km/h (3 Bft) W 1.00 h 301 W/m 7.7 C 21.5 C 19.7 km/h (3 Bft)
12.05.2007 19:00 20.1 C 44 % 1013.3 hPa 0.0 l/m 14.7 km/h (3 Bft) W-NW 0.55 h 127 W/m 7.4 C 20.1 C 21.3 km/h (4 Bft)
12.05.2007 20:00 18.1 C 50 % 1013.8 hPa 0.0 l/m 8.8 km/h (2 Bft) W-NW 0.00 h 21 W/m 7.5 C 18.1 C 12.7 km/h (3 Bft)
12.05.2007 21:00 16.3 C 57 % 1014.2 hPa 0.0 l/m 3.2 km/h (1 Bft) W-NW 0.00 h 0 W/m 7.8 C 16.3 C 5.3 km/h (1 Bft)
12.05.2007 22:00 14.1 C 68 % 1014.7 hPa 0.0 l/m 4.5 km/h (1 Bft) O-SO 0.00 h 0 W/m 8.2 C 14.1 C 6.1 km/h (2 Bft)
12.05.2007 23:00 12.3 C 77 % 1014.7 hPa 0.0 l/m 2.6 km/h (1 Bft) O-SO 0.00 h 0 W/m 8.4 C 12.3 C 4.0 km/h (1 Bft)
13.05.2007 00:00 11.4 C 81 % 1014.4 hPa 0.0 l/m 0.9 km/h (0 Bft) O-SO 0.00 h 0 W/m 8.1 C 11.4 C 1.8 km/h (1 Bft)
13.05.2007 01:00 10.2 C 86 % 1014.3 hPa 0.0 l/m 1.0 km/h (0 Bft) O-SO 0.00 h 0 W/m 7.9 C 10.2 C 1.7 km/h (1 Bft)
13.05.2007 02:00 9.4 C 89 % 1014.0 hPa 0.0 l/m 0.3 km/h (0 Bft) O-SO 0.00 h 0 W/m 7.7 C 9.4 C 1.0 km/h (0 Bft)
13.05.2007 03:00 8.8 C 91 % 1013.6 hPa 0.0 l/m 1.1 km/h (0 Bft) O-SO 0.00 h 0 W/m 7.4 C 8.7 C 2.0 km/h (1 Bft)
13.05.2007 04:00 8.6 C 92 % 1013.3 hPa 0.0 l/m 1.0 km/h (0 Bft) O-SO 0.00 h 0 W/m 7.3 C 8.6 C 1.9 km/h (1 Bft)
13.05.2007 05:00 8.3 C 93 % 1012.9 hPa 0.0 l/m 0.7 km/h (0 Bft) O-SO 0.00 h 5 W/m 7.2 C 8.3 C 1.2 km/h (1 Bft)
13.05.2007 06:00 8.4 C 93 % 1012.4 hPa 0.0 l/m 0.1 km/h (0 Bft) O-SO 0.00 h 38 W/m 7.3 C 8.4 C 0.6 km/h (0 Bft)
13.05.2007 07:00 9.9 C 90 % 1012.1 hPa 0.0 l/m 0.0 km/h (0 Bft) N 0.67 h 149 W/m 8.4 C 9.9 C 0.2 km/h (0 Bft)
13.05.2007 08:00 12.6 C 81 % 1011.4 hPa 0.0 l/m 1.3 km/h (1 Bft) NO 0.97 h 318 W/m 9.4 C 12.6 C 2.9 km/h (1 Bft)
13.05.2007 09:00 15.6 C 70 % 1010.8 hPa 0.0 l/m 0.9 km/h (0 Bft) NO 1.00 h 501 W/m 10.2 C 15.6 C 2.2 km/h (1 Bft)
13.05.2007 10:00 18.8 C 59 % 1010.2 hPa 0.0 l/m 1.6 km/h (1 Bft) O-SO 1.00 h 646 W/m 10.6 C 18.8 C 3.5 km/h (1 Bft)
13.05.2007 11:00 21.0 C 55 % 1009.1 hPa 0.0 l/m 3.0 km/h (1 Bft) SO 1.00 h 764 W/m 11.6 C 21.0 C 5.5 km/h (1 Bft)
13.05.2007 12:00 23.1 C 49 % 1008.3 hPa 0.0 l/m 4.1 km/h (1 Bft) O-SO 1.00 h 809 W/m 11.6 C 23.1 C 7.2 km/h (2 Bft)
13.05.2007 13:00 24.6 C 46 % 1007.4 hPa 0.0 l/m 2.8 km/h (1 Bft) O-SO 0.72 h 730 W/m 12.1 C 24.6 C 5.6 km/h (1 Bft)
13.05.2007 14:00 25.6 C 47 % 1006.7 hPa 0.0 l/m 2.4 km/h (1 Bft) O-SO 0.87 h 640 W/m 13.3 C 25.6 C 4.9 km/h (1 Bft)
13.05.2007 15:00 26.2 C 44 % 1006.1 hPa 0.0 l/m 1.8 km/h (1 Bft) O-SO 0.58 h 581 W/m 12.8 C 26.2 C 3.8 km/h (1 Bft)
13.05.2007 16:00 26.2 C 47 % 1005.7 hPa 0.0 l/m 2.5 km/h (1 Bft) N-NW 0.30 h 363 W/m 13.9 C 26.2 C 4.2 km/h (1 Bft)
13.05.2007 17:00 26.6 C 47 % 1005.3 hPa 0.0 l/m 2.8 km/h (1 Bft) N-NW 0.58 h 350 W/m 14.3 C 26.6 C 4.8 km/h (1 Bft)
13.05.2007 18:00 25.7 C 48 % 1004.9 hPa 0.0 l/m 1.1 km/h (1 Bft) N-NW 0.08 h 148 W/m 13.8 C 25.7 C 2.4 km/h (1 Bft)
13.05.2007 19:00 23.7 C 61 % 1005.6 hPa 0.0 l/m 2.2 km/h (1 Bft) SO 0.00 h 69 W/m 15.7 C 23.7 C 3.3 km/h (1 Bft)
13.05.2007 20:00 22.3 C 59 % 1006.1 hPa 0.0 l/m 3.8 km/h (1 Bft) O-SO 0.00 h 15 W/m 14.0 C 22.3 C 5.3 km/h (1 Bft)
13.05.2007 21:00 20.8 C 58 % 1006.3 hPa 0.0 l/m 4.9 km/h (1 Bft) O-SO 0.00 h 0 W/m 12.1 C 20.8 C 6.2 km/h (2 Bft)
13.05.2007 22:00 20.9 C 54 % 1006.6 hPa 0.0 l/m 0.7 km/h (0 Bft) O 0.00 h 0 W/m 11.1 C 20.9 C 1.8 km/h (1 Bft)
13.05.2007 23:00 20.6 C 55 % 1007.4 hPa 0.0 l/m 2.1 km/h (1 Bft) NW 0.00 h 0 W/m 11.3 C 20.6 C 3.8 km/h (1 Bft)
Min-Datum _ 13.05.07 10.05.07 13.05.07 - 07.05.07 - - - 11.05.07 13.05.07 07.05.07
_ Min-Zeit 06:12 19:16 18:00 - 00:00 - - - 08:16 03:49 00:00
Minimum _ 7.9 C 33 % 1004.9 hPa - 0.0 km/h (0 Bft) - - - 6.4 C 7.7 C 0.0 km/h (0 Bft)
Max-Datum _ 13.05.07 09.05.07 09.05.07 08.05.07 08.05.07 - 07.05.07 09.05.07 13.05.07 13.05.07 09.05.07
_ Max-Zeit 17:20 02:59 21:30 04:02 09:42 - 13:05 13:01 19:25 17:20 13:55
Maximum _ 27.3 C 98 % 1021.0 hPa 2.8 l/m 35.7 km/h
W (5 Bft)
- 0.02 h 1139 W/m 16.8 C 27.3 C 57.4 km/h
W (7 Bft)
Durchschnitt _ 15.8 C 71 % 1015.1 hPa #24.0 l/m 8.5 km/h (2 Bft) W #39:04 h 308 W/m 10.0 C 15.8 C 13.2 km/h (3 Bft)
© Kaiko 2007